Time;durP1;ratioP1;P1;durP2;ratioP2;P2;SDS_P1;SDS_P2;PMS_P1;PMS_P2;Temp;Humidity;BMP_temperature;BMP_pressure;BME280_temperature;BME280_humidity;BME280_pressure;Samples;Min_cycle;Max_cycle;Signal;HPM_P1;HPM_P2
2023/09/16 00:01:38;;;;;;;11.68;6.72;;;;;;;16.90;100.00;101404.81;5087232;28;20490;-68
2023/09/16 00:04:05;;;;;;;8.18;6.07;;;;;;;16.86;100.00;101405.34;5082849;28;20141;-68
2023/09/16 00:06:32;;;;;;;12.77;6.68;;;;;;;16.85;100.00;101401.03;5083122;28;20461;-67
2023/09/16 00:08:58;;;;;;;9.93;7.20;;;;;;;16.83;100.00;101401.19;5080330;28;20535;-68
2023/09/16 00:11:25;;;;;;;10.98;7.10;;;;;;;16.82;100.00;101399.56;5083463;28;20131;-68
2023/09/16 00:13:52;;;;;;;9.82;6.38;;;;;;;16.77;100.00;101393.91;5086311;28;20048;-68
2023/09/16 00:16:19;;;;;;;10.93;6.65;;;;;;;16.75;100.00;101396.72;5089217;28;20049;-68
2023/09/16 00:18:45;;;;;;;9.23;6.30;;;;;;;16.75;100.00;101398.56;5084794;28;20055;-68
2023/09/16 00:21:14;;;;;;;10.23;6.22;;;;;;;16.74;100.00;101400.41;5083005;28;20127;-68
2023/09/16 00:23:42;;;;;;;10.52;6.65;;;;;;;16.73;100.00;101406.69;5094507;28;20447;-68
2023/09/16 00:26:09;;;;;;;12.10;6.65;;;;;;;16.71;100.00;101398.06;5083623;28;20492;-68
2023/09/16 00:28:35;;;;;;;9.82;5.97;;;;;;;16.67;100.00;101394.13;5086650;28;20052;-68
2023/09/16 00:31:03;;;;;;;9.63;6.65;;;;;;;16.65;100.00;101392.66;5080108;28;20044;-68
2023/09/16 00:33:29;;;;;;;9.75;6.50;;;;;;;16.64;100.00;101391.84;5089535;28;20059;-68
2023/09/16 00:35:56;;;;;;;9.82;6.75;;;;;;;16.59;100.00;101378.28;5093269;28;20044;-68
2023/09/16 00:38:23;;;;;;;9.27;6.93;;;;;;;16.58;100.00;101389.84;5076682;28;20055;-67
2023/09/16 00:40:50;;;;;;;13.00;6.75;;;;;;;16.59;100.00;101386.22;5106669;28;20141;-67
2023/09/16 00:43:16;;;;;;;9.63;6.95;;;;;;;16.58;100.00;101392.50;5090334;28;20124;-67
2023/09/16 00:45:43;;;;;;;11.75;7.25;;;;;;;16.58;100.00;101384.56;5088673;28;20424;-66
2023/09/16 00:48:12;;;;;;;10.50;7.47;;;;;;;16.58;100.00;101388.06;5093001;27;20250;-67
2023/09/16 00:50:39;;;;;;;11.98;7.45;;;;;;;16.58;100.00;101385.41;5103055;27;20071;-67
2023/09/16 00:53:06;;;;;;;12.27;7.25;;;;;;;16.55;100.00;101383.09;5095130;27;20142;-67
2023/09/16 00:55:33;;;;;;;9.82;7.03;;;;;;;16.56;100.00;101381.25;5082578;28;20084;-68
2023/09/16 00:58:00;;;;;;;10.93;7.22;;;;;;;16.56;100.00;101381.25;5099166;27;20056;-67
2023/09/16 01:00:28;;;;;;;11.57;7.50;;;;;;;16.57;100.00;101381.09;5090050;28;20599;-67
2023/09/16 01:02:55;;;;;;;;;;;;;;;16.57;100.00;101375.78;5081721;28;20058;-67
2023/09/16 01:05:22;;;;;;;9.93;7.13;;;;;;;16.54;100.00;101378.81;5091423;27;20269;-67
2023/09/16 01:07:50;;;;;;;9.07;6.93;;;;;;;16.55;100.00;101377.78;5089032;28;20477;-67
2023/09/16 01:10:23;;;;;;;10.83;7.17;;;;;;;16.55;100.00;101374.31;5092352;28;20100;-67
2023/09/16 01:12:53;;;;;;;12.88;8.20;;;;;;;16.56;100.00;101373.31;5084065;28;20075;-67
2023/09/16 01:15:22;;;;;;;13.65;7.75;;;;;;;16.54;100.00;101378.81;5094077;28;20135;-67
2023/09/16 01:18:15;;;;;;;14.75;9.02;;;;;;;16.57;100.00;101385.56;5073255;28;20486;-67
2023/09/16 01:20:43;;;;;;;11.05;7.25;;;;;;;16.55;100.00;101380.44;5089795;27;20145;-67
2023/09/16 01:23:09;;;;;;;9.88;7.35;;;;;;;16.56;100.00;101387.41;5103362;27;20810;-66
2023/09/16 01:25:36;;;;;;;10.18;7.32;;;;;;;16.52;100.00;101377.31;5101380;27;20076;-67
2023/09/16 01:28:03;;;;;;;10.15;7.47;;;;;;;16.52;100.00;101380.78;5084931;28;20044;-66
2023/09/16 01:30:35;;;;;;;11.45;8.32;;;;;;;16.51;100.00;101375.66;5084312;28;20056;-68
2023/09/16 01:33:21;;;;;;;8.65;7.55;;;;;;;16.50;100.00;101374.00;5096975;28;20058;-67
2023/09/16 01:35:53;;;;;;;9.80;7.60;;;;;;;16.47;100.00;101375.19;5079908;28;20784;-67
2023/09/16 01:38:22;;;;;;;15.77;8.02;;;;;;;16.47;100.00;101369.06;5088482;28;20658;-68
2023/09/16 01:40:51;;;;;;;11.65;8.27;;;;;;;16.45;100.00;101363.13;5079349;28;20044;-68
2023/09/16 01:43:18;;;;;;;;;;;;;;;16.43;100.00;101365.13;5080686;28;20126;-67
2023/09/16 01:45:45;;;;;;;12.73;8.18;;;;;;;16.37;100.00;101364.78;5096400;28;20044;-67
2023/09/16 01:48:11;;;;;;;13.02;8.85;;;;;;;16.34;100.00;101364.31;5085382;28;20127;-66
2023/09/16 01:50:38;;;;;;;10.85;8.55;;;;;;;16.30;100.00;101361.16;5097410;28;20058;-67
2023/09/16 01:53:07;;;;;;;14.55;9.30;;;;;;;16.24;100.00;101361.84;5083327;28;20051;-67
2023/09/16 01:55:34;;;;;;;12.00;9.07;;;;;;;16.17;100.00;101360.88;5095784;28;20051;-66
2023/09/16 01:58:00;;;;;;;13.98;8.60;;;;;;;16.15;100.00;101358.44;5095856;27;20333;-67
2023/09/16 02:00:27;;;;;;;10.88;8.30;;;;;;;16.11;100.00;101359.75;5096320;28;20051;-67
2023/09/16 02:02:54;;;;;;;12.07;8.63;;;;;;;16.10;100.00;101360.75;5083633;28;20044;-68
2023/09/16 02:05:20;;;;;;;10.32;7.82;;;;;;;16.14;100.00;101355.94;5088075;28;20060;-67
2023/09/16 02:07:47;;;;;;;14.25;8.73;;;;;;;16.12;100.00;101357.94;5092984;28;20052;-67
2023/09/16 02:10:14;;;;;;;12.00;8.77;;;;;;;16.12;100.00;101357.94;5080133;28;20143;-67
2023/09/16 02:12:41;;;;;;;13.50;8.25;;;;;;;16.15;100.00;101362.88;5093847;28;20055;-67
2023/09/16 02:15:09;;;;;;;11.60;8.88;;;;;;;16.11;100.00;101354.47;5090120;28;20722;-67
2023/09/16 02:17:39;;;;;;;12.15;9.05;;;;;;;16.12;100.00;101358.75;5100104;28;20047;-68
2023/09/16 02:20:09;;;;;;;10.23;8.30;;;;;;;16.11;100.00;101362.41;5078547;28;20055;-67
2023/09/16 02:22:37;;;;;;;14.73;9.68;;;;;;;16.09;100.00;101364.41;5091144;28;20450;-68
2023/09/16 02:25:03;;;;;;;14.90;9.25;;;;;;;16.06;100.00;101356.78;5083662;28;20496;-67
2023/09/16 02:27:30;;;;;;;12.60;9.10;;;;;;;16.08;100.00;101362.72;5087198;28;20117;-68
2023/09/16 02:29:56;;;;;;;14.38;9.27;;;;;;;16.08;100.00;101362.72;5083970;28;20052;-68
2023/09/16 02:32:23;;;;;;;13.18;9.20;;;;;;;16.07;100.00;101371.66;5077643;28;20473;-68
2023/09/16 02:34:49;;;;;;;13.27;9.15;;;;;;;16.05;100.00;101365.69;5091805;28;20059;-68
2023/09/16 02:37:16;;;;;;;12.82;8.85;;;;;;;16.06;100.00;101366.56;5083011;28;20047;-66
2023/09/16 02:39:42;;;;;;;15.13;9.05;;;;;;;16.05;100.00;101359.59;5085369;28;20048;-67
2023/09/16 02:42:09;;;;;;;12.50;8.55;;;;;;;16.01;100.00;101353.81;5090126;28;20424;-66
2023/09/16 02:44:35;;;;;;;11.07;8.77;;;;;;;16.01;100.00;101362.59;5086087;28;20472;-67
2023/09/16 02:47:02;;;;;;;11.90;8.93;;;;;;;15.99;100.00;101361.09;5096776;28;20139;-68
2023/09/16 02:49:29;;;;;;;12.57;9.68;;;;;;;15.93;100.00;101359.13;5081804;28;20565;-68
2023/09/16 02:51:56;;;;;;;12.35;9.13;;;;;;;15.91;100.00;101353.19;5095271;28;20143;-67
2023/09/16 02:54:22;;;;;;;11.02;8.50;;;;;;;15.88;100.00;101354.34;5084654;28;20052;-66
2023/09/16 02:56:49;;;;;;;11.60;8.85;;;;;;;15.79;100.00;101350.06;5100947;27;20173;-67
2023/09/16 02:59:15;;;;;;;12.07;9.57;;;;;;;15.80;100.00;101355.19;5087189;28;20075;-68
2023/09/16 03:01:42;;;;;;;14.65;9.50;;;;;;;15.79;100.00;101352.69;5077141;28;20121;-68
2023/09/16 03:04:08;;;;;;;15.30;10.20;;;;;;;15.76;100.00;101347.75;5085909;28;20054;-67
2023/09/16 03:06:35;;;;;;;12.75;10.40;;;;;;;15.71;100.00;101339.47;5073025;28;20051;-67
2023/09/16 03:09:03;;;;;;;14.52;10.38;;;;;;;15.72;100.00;101343.75;5080787;28;20055;-67
2023/09/16 03:11:29;;;;;;;12.90;10.80;;;;;;;15.68;100.00;101343.28;5091552;28;20131;-67
2023/09/16 03:13:56;;;;;;;14.25;10.25;;;;;;;15.64;100.00;101336.63;5087306;28;20051;-68
2023/09/16 03:16:23;;;;;;;19.60;11.18;;;;;;;15.61;100.00;101340.47;5091810;28;20051;-67
2023/09/16 03:18:51;;;;;;;13.77;10.77;;;;;;;15.60;100.00;101337.97;5080354;28;20079;-67
2023/09/16 03:21:22;;;;;;;17.30;10.38;;;;;;;15.59;100.00;101337.16;5076956;28;20440;-67
2023/09/16 03:23:49;;;;;;;14.75;10.43;;;;;;;15.61;100.00;101344.94;5075381;28;20052;-67
2023/09/16 03:26:16;;;;;;;13.20;10.05;;;;;;;15.62;100.00;101346.56;5083910;28;20111;-67
2023/09/16 03:28:47;;;;;;;13.35;10.02;;;;;;;15.65;100.00;101340.94;5088405;28;20040;-68
2023/09/16 03:31:15;;;;;;;15.07;9.40;;;;;;;15.69;100.00;101338.81;5082154;28;20130;-67
2023/09/16 03:33:42;;;;;;;15.20;9.43;;;;;;;15.70;100.00;101338.66;5082159;28;20048;-67
2023/09/16 03:36:09;;;;;;;14.75;10.88;;;;;;;15.74;100.00;101333.84;5088314;28;20084;-66
2023/09/16 03:38:45;;;;;;;15.15;10.45;;;;;;;15.71;100.00;101326.25;5094413;28;20052;-67
2023/09/16 03:41:11;;;;;;;12.82;10.43;;;;;;;15.68;100.00;101311.53;5075998;28;20052;-68
2023/09/16 03:43:38;;;;;;;12.85;10.32;;;;;;;15.68;100.00;101311.53;5085033;28;20410;-68
2023/09/16 03:46:05;;;;;;;13.27;9.93;;;;;;;15.66;100.00;101316.16;5090665;28;20413;-68
2023/09/16 03:48:31;;;;;;;15.38;10.80;;;;;;;15.62;100.00;101310.38;5082008;28;20048;-68
2023/09/16 03:50:58;;;;;;;15.60;11.00;;;;;;;15.60;100.00;101307.09;5090599;28;20320;-68
2023/09/16 03:53:27;;;;;;;15.25;11.10;;;;;;;15.56;100.00;101300.50;5075920;28;20056;-68
2023/09/16 03:56:06;;;;;;;13.30;10.88;;;;;;;15.54;100.00;101301.63;5095868;28;20056;-68
2023/09/16 03:58:33;;;;;;;14.93;11.27;;;;;;;15.56;100.00;101305.78;5082204;27;20048;-68
2023/09/16 04:01:00;;;;;;;16.05;11.32;;;;;;;15.53;100.00;101306.09;5089849;28;20123;-67
2023/09/16 04:03:27;;;;;;;15.17;11.90;;;;;;;15.51;100.00;101300.16;5085255;28;21443;-67
2023/09/16 04:05:56;;;;;;;15.65;11.45;;;;;;;15.55;100.00;101305.94;5083090;28;20529;-68
2023/09/16 04:08:26;;;;;;;15.43;12.32;;;;;;;15.55;100.00;101293.53;5088721;28;20134;-67
2023/09/16 04:11:03;;;;;;;16.83;11.50;;;;;;;15.60;100.00;101301.81;5082606;28;20142;-68
2023/09/16 04:13:29;;;;;;;13.57;10.02;;;;;;;15.62;100.00;101306.91;5090674;28;20056;-67
2023/09/16 04:15:56;;;;;;;14.15;11.20;;;;;;;15.66;100.00;101318.81;5073418;28;20056;-68
2023/09/16 04:18:22;;;;;;;16.52;12.02;;;;;;;15.62;100.00;101313.03;5078807;28;20058;-67
2023/09/16 04:20:50;;;;;;;16.13;11.50;;;;;;;15.61;100.00;101310.56;5093857;28;20587;-66
2023/09/16 04:23:17;;;;;;;17.63;12.20;;;;;;;15.62;100.00;101313.03;5086542;28;20105;-68
2023/09/16 04:25:44;;;;;;;16.30;11.50;;;;;;;15.61;100.00;101316.66;5090416;28;20724;-67
2023/09/16 04:28:11;;;;;;;14.55;11.23;;;;;;;15.60;100.00;101311.53;5082541;28;20075;-67
2023/09/16 04:30:48;;;;;;;14.55;11.57;;;;;;;15.59;100.00;101321.28;5075696;28;20052;-68
2023/09/16 04:33:18;;;;;;;17.45;11.10;;;;;;;15.58;100.00;101318.81;5075692;28;20447;-68
2023/09/16 04:35:48;;;;;;;16.58;11.48;;;;;;;15.53;100.00;101314.03;5089502;28;20398;-68
2023/09/16 04:38:16;;;;;;;16.00;11.65;;;;;;;15.49;100.00;101314.53;5076818;28;20050;-68
2023/09/16 04:40:43;;;;;;;13.25;11.20;;;;;;;15.47;100.00;101311.25;5084704;28;20522;-67
2023/09/16 04:43:13;;;;;;;16.88;11.77;;;;;;;15.46;100.00;101314.84;5079012;28;20071;-67
2023/09/16 04:45:44;;;;;;;17.83;12.20;;;;;;;15.43;100.00;101308.09;5082259;28;20126;-67
2023/09/16 04:48:15;;;;;;;15.02;11.88;;;;;;;15.43;100.00;101302.81;5096276;28;20071;-68
2023/09/16 04:50:43;;;;;;;18.33;12.73;;;;;;;15.38;100.00;101313.84;5090959;28;20062;-68
2023/09/16 04:53:10;;;;;;;15.77;13.07;;;;;;;15.36;100.00;101313.19;5091042;28;20070;-69
2023/09/16 04:55:37;;;;;;;17.35;11.45;;;;;;;15.37;100.00;101308.75;5091244;28;20475;-67
2023/09/16 04:58:03;;;;;;;17.65;12.57;;;;;;;15.36;100.00;101309.75;5083534;28;20075;-68
2023/09/16 05:00:33;;;;;;;16.92;12.30;;;;;;;15.35;100.00;101308.94;5074619;28;20088;-67
2023/09/16 05:03:00;;;;;;;14.68;12.23;;;;;;;15.34;100.00;101309.91;5094832;28;20048;-68
2023/09/16 05:05:27;;;;;;;15.55;12.27;;;;;;;15.33;100.00;101308.25;5086200;28;20056;-68
2023/09/16 05:07:54;;;;;;;14.73;12.35;;;;;;;15.33;100.00;101313.56;5097778;28;20054;-68
2023/09/16 05:10:20;;;;;;;16.02;12.38;;;;;;;15.30;100.00;101308.59;5101717;28;20411;-68
2023/09/16 05:12:47;;;;;;;14.77;12.52;;;;;;;15.30;100.00;101311.22;5072465;28;20135;-66
2023/09/16 05:15:14;;;;;;;16.02;12.60;;;;;;;15.26;100.00;101315.19;5099392;28;20058;-68
2023/09/16 05:17:40;;;;;;;16.50;13.00;;;;;;;15.25;100.00;101316.19;5087569;28;20081;-67
2023/09/16 05:20:10;;;;;;;17.70;12.77;;;;;;;15.26;100.00;101314.38;5103096;28;20048;-68
2023/09/16 05:22:38;;;;;;;14.93;12.68;;;;;;;15.23;100.00;101318.19;5094930;28;20054;-68
2023/09/16 05:25:06;;;;;;;14.98;12.60;;;;;;;15.23;100.00;101310.25;5087198;27;20059;-68
2023/09/16 05:27:32;;;;;;;16.55;13.48;;;;;;;15.18;100.00;101312.56;5093915;28;20557;-68
2023/09/16 05:30:01;;;;;;;18.50;13.60;;;;;;;15.18;100.00;101310.72;5078545;28;20129;-67
2023/09/16 05:32:29;;;;;;;17.63;12.70;;;;;;;15.19;100.00;101307.09;5084879;28;20485;-68
2023/09/16 05:34:56;;;;;;;16.13;11.90;;;;;;;15.20;100.00;101307.94;5088327;28;20570;-67
2023/09/16 05:37:22;;;;;;;14.25;12.43;;;;;;;15.17;100.00;101301.16;5085126;28;20493;-68
2023/09/16 05:39:49;;;;;;;17.40;12.82;;;;;;;15.16;100.00;101303.97;5083251;28;20096;-67
2023/09/16 05:42:15;;;;;;;15.32;12.70;;;;;;;15.13;100.00;101296.34;5074082;28;20511;-68
2023/09/16 05:44:42;;;;;;;17.58;13.25;;;;;;;15.13;100.00;101310.41;5091413;28;20528;-67
2023/09/16 05:47:08;;;;;;;18.85;14.18;;;;;;;15.14;100.00;101305.94;5088799;28;20185;-68
2023/09/16 05:49:35;;;;;;;15.80;13.90;;;;;;;15.16;100.00;101310.06;5100373;28;20067;-67
2023/09/16 05:52:01;;;;;;;15.98;13.32;;;;;;;15.18;100.00;101312.56;5083625;28;20078;-67
2023/09/16 05:54:28;;;;;;;15.95;12.80;;;;;;;15.22;100.00;101314.69;5078121;28;20048;-68
2023/09/16 05:56:54;;;;;;;18.88;13.68;;;;;;;15.25;100.00;101318.00;5108861;27;20062;-68
2023/09/16 05:59:21;;;;;;;20.08;14.13;;;;;;;15.25;100.00;101325.91;5099094;27;20776;-68
2023/09/16 06:01:50;;;;;;;17.63;14.00;;;;;;;15.30;100.00;101326.25;5096083;28;20135;-68
2023/09/16 06:04:16;;;;;;;16.48;12.32;;;;;;;15.31;100.00;101325.25;5096459;28;20491;-67
2023/09/16 06:06:43;;;;;;;18.02;13.52;;;;;;;15.34;100.00;101317.00;5091346;28;20058;-69
2023/09/16 06:09:10;;;;;;;16.75;13.57;;;;;;;15.39;100.00;101322.63;5089417;28;20048;-67
2023/09/16 06:11:37;;;;;;;18.88;12.90;;;;;;;15.42;100.00;101325.75;5089822;28;20074;-68
2023/09/16 06:14:05;;;;;;;16.52;13.82;;;;;;;15.46;100.00;101323.59;5089392;28;20127;-68
2023/09/16 06:16:32;;;;;;;15.35;12.68;;;;;;;15.52;100.00;101335.34;5084252;28;20047;-68
2023/09/16 06:18:59;;;;;;;16.52;12.38;;;;;;;15.57;100.00;101330.38;5089338;28;20047;-69
2023/09/16 06:21:25;;;;;;;19.90;13.68;;;;;;;15.63;100.00;101335.81;5085306;28;20532;-68
2023/09/16 06:23:52;;;;;;;16.80;12.98;;;;;;;15.66;100.00;101334.69;5085044;28;20044;-68
2023/09/16 06:26:18;;;;;;;17.60;13.60;;;;;;;15.69;100.00;101333.50;5084274;28;20093;-66
2023/09/16 06:28:45;;;;;;;16.75;13.38;;;;;;;15.69;100.00;101334.34;5084522;28;20575;-68
2023/09/16 06:31:11;;;;;;;17.52;13.43;;;;;;;15.71;100.00;101324.41;5082642;28;20420;-67
2023/09/16 06:33:38;;;;;;;16.58;12.98;;;;;;;15.74;100.00;101336.50;5077516;28;20205;-67
2023/09/16 06:36:05;;;;;;;17.58;13.77;;;;;;;15.80;100.00;101335.84;5080757;28;20497;-68
2023/09/16 06:38:31;;;;;;;17.25;14.38;;;;;;;15.79;100.00;101327.06;5082832;28;20405;-69
2023/09/16 06:40:58;;;;;;;16.58;13.20;;;;;;;15.85;100.00;101327.41;5091422;28;20048;-67
2023/09/16 06:43:24;;;;;;;16.90;14.40;;;;;;;15.92;100.00;101333.69;5080583;28;20055;-69
2023/09/16 06:45:51;;;;;;;17.02;14.13;;;;;;;15.94;100.00;101326.41;5092237;28;20086;-67
2023/09/16 06:48:17;;;;;;;18.30;14.18;;;;;;;15.95;100.00;101326.19;5099446;28;20108;-68
2023/09/16 06:50:44;;;;;;;16.13;14.10;;;;;;;16.01;100.00;101330.00;5095026;28;20479;-67
2023/09/16 06:53:11;;;;;;;17.42;13.82;;;;;;;16.03;100.00;101328.00;5091486;28;20096;-68
2023/09/16 06:55:37;;;;;;;19.35;14.40;;;;;;;16.07;100.00;101325.84;5091789;28;20435;-68
2023/09/16 06:58:06;;;;;;;15.30;13.10;;;;;;;16.09;100.00;101334.44;5101556;27;20139;-68
2023/09/16 07:00:32;;;;;;;;;;;;;;;16.16;100.00;101328.28;5093321;28;20059;-68
2023/09/16 07:02:59;;;;;;;18.67;13.77;;;;;;;16.21;100.00;101331.28;5079569;28;20512;-67
2023/09/16 07:05:27;;;;;;;17.05;13.27;;;;;;;16.31;100.00;101338.19;5086969;28;20048;-68
2023/09/16 07:07:54;;;;;;;20.33;13.68;;;;;;;16.36;100.00;101336.66;5077289;28;20048;-68
2023/09/16 07:10:21;;;;;;;20.63;14.52;;;;;;;16.43;100.00;101328.88;5083206;28;20080;-68
2023/09/16 07:12:47;;;;;;;21.42;13.98;;;;;;;16.49;100.00;101332.66;5082310;28;20397;-67
2023/09/16 07:15:14;;;;;;;18.75;13.15;;;;;;;16.55;100.00;101331.94;5091736;28;20061;-67
2023/09/16 07:17:41;;;;;;;15.10;12.27;;;;;;;16.59;100.00;101330.59;5086035;28;20478;-67
2023/09/16 07:20:08;;;;;;;21.52;13.70;;;;;;;16.66;100.00;101326.28;5080514;28;20355;-67
2023/09/16 07:22:34;;;;;;;16.85;13.65;;;;;;;16.70;100.00;101319.63;5092534;28;20725;-67
2023/09/16 07:25:01;;;;;;;16.15;13.00;;;;;;;16.76;100.00;101318.91;5088962;28;20051;-67
2023/09/16 07:27:28;;;;;;;17.27;13.60;;;;;;;16.79;100.00;101318.56;5084009;28;20048;-67
2023/09/16 07:29:55;;;;;;;16.75;12.98;;;;;;;16.87;100.00;101316.91;5072913;28;20488;-70
2023/09/16 07:32:21;;;;;;;15.25;12.80;;;;;;;16.92;100.00;101323.31;5083903;28;20493;-68
2023/09/16 07:34:48;;;;;;;18.50;13.68;;;;;;;17.00;100.00;101320.63;5084487;28;20497;-67
2023/09/16 07:37:14;;;;;;;20.45;13.35;;;;;;;17.04;100.00;101329.03;5089540;28;20052;-67
2023/09/16 07:39:41;;;;;;;15.20;13.00;;;;;;;17.09;100.00;101320.53;5089963;28;20059;-67
2023/09/16 07:42:10;;;;;;;15.07;12.55;;;;;;;17.14;100.00;101326.16;5087306;28;20051;-68
2023/09/16 07:44:36;;;;;;;16.70;12.98;;;;;;;17.16;100.00;101324.97;5080438;28;20059;-68
2023/09/16 07:47:03;;;;;;;16.13;12.18;;;;;;;17.23;100.00;101337.50;5079638;28;20101;-68
2023/09/16 07:49:29;;;;;;;17.15;11.90;;;;;;;17.29;100.00;101337.63;5086180;28;20060;-67
2023/09/16 07:51:56;;;;;;;12.55;9.50;;;;;;;17.37;100.00;101342.06;5088529;28;20522;-66
2023/09/16 07:54:22;;;;;;;12.27;10.98;;;;;;;17.43;100.00;101335.22;5088688;28;20504;-67
2023/09/16 07:56:49;;;;;;;15.40;11.57;;;;;;;17.52;100.00;101334.97;5099466;27;20117;-67
2023/09/16 07:59:20;;;;;;;16.90;11.95;;;;;;;17.61;100.00;101340.19;5088263;28;20227;-68
2023/09/16 08:01:47;;;;;;;14.18;11.13;;;;;;;17.69;100.00;101337.44;5089781;28;20538;-67
2023/09/16 08:04:13;;;;;;;16.00;12.13;;;;;;;17.82;100.00;101345.63;5079213;28;20655;-67
2023/09/16 08:06:40;;;;;;;16.23;10.25;;;;;;;17.89;100.00;101349.19;5093545;28;20092;-68
2023/09/16 08:09:07;;;;;;;18.02;11.48;;;;;;;18.06;100.00;101349.06;5083446;28;20050;-67
2023/09/16 08:11:34;;;;;;;15.38;10.52;;;;;;;18.20;100.00;101355.38;5082394;28;20075;-69
2023/09/16 08:14:00;;;;;;;13.65;10.48;;;;;;;18.34;100.00;101351.88;5084653;28;20048;-68
2023/09/16 08:16:28;;;;;;;14.02;10.38;;;;;;;18.44;100.00;101348.94;5088534;28;20047;-67
2023/09/16 08:18:54;;;;;;;11.73;7.38;;;;;;;18.54;100.00;101363.59;5085249;28;20126;-67
2023/09/16 08:21:21;;;;;;;14.13;9.27;;;;;;;18.66;100.00;101360.41;5078718;28;20060;-68
2023/09/16 08:23:48;;;;;;;13.68;9.95;;;;;;;18.71;100.00;101366.81;5083094;28;20048;-67
2023/09/16 08:26:14;;;;;;;14.27;10.30;;;;;;;18.82;100.00;101370.88;5089883;28;20507;-67
2023/09/16 08:28:41;;;;;;;14.23;9.27;;;;;;;18.90;100.00;101365.44;5073583;28;20389;-67
2023/09/16 08:31:07;;;;;;;17.77;10.40;;;;;;;19.02;100.00;101368.44;5081032;28;20079;-69
2023/09/16 08:33:34;;;;;;;14.07;10.32;;;;;;;19.12;100.00;101365.47;5089411;28;20048;-67
2023/09/16 08:36:00;;;;;;;10.02;7.65;;;;;;;19.24;100.00;101365.78;5084159;28;20044;-67
2023/09/16 08:38:27;;;;;;;15.98;10.68;;;;;;;19.40;100.00;101370.81;5079920;28;20052;-69
2023/09/16 08:41:30;;;;;;;14.90;10.20;;;;;;;19.55;100.00;101365.44;5085702;28;20220;-68
2023/09/16 08:44:04;;;;;;;13.10;10.38;;;;;;;19.65;100.00;101365.91;5071417;28;20075;-67
2023/09/16 08:46:34;;;;;;;12.38;9.77;;;;;;;19.79;100.00;101366.06;5091883;28;20428;-67
2023/09/16 08:49:04;;;;;;;14.32;10.52;;;;;;;19.87;100.00;101358.72;5087131;28;20676;-68
2023/09/16 08:51:35;;;;;;;14.27;10.02;;;;;;;20.01;100.00;101359.63;5082325;28;20059;-67
2023/09/16 08:54:05;;;;;;;13.23;9.88;;;;;;;20.16;100.00;101364.84;5083053;28;20059;-67
2023/09/16 08:56:32;;;;;;;13.15;10.02;;;;;;;20.28;100.00;101363.25;5091071;27;20055;-67
2023/09/16 08:59:00;;;;;;;16.25;9.85;;;;;;;20.43;100.00;101363.13;5105660;28;20100;-67
2023/09/16 09:01:27;;;;;;;15.23;9.52;;;;;;;20.58;100.00;101363.00;5083571;28;20051;-66
2023/09/16 09:03:54;;;;;;;13.23;9.80;;;;;;;20.72;100.00;101363.91;5090799;28;20080;-67
2023/09/16 09:06:24;;;;;;;13.77;9.63;;;;;;;20.88;100.00;101362.72;5084985;28;20062;-67
2023/09/16 09:09:05;;;;;;;12.05;8.93;;;;;;;21.08;100.00;101357.41;5098554;28;20559;-67
2023/09/16 09:11:32;;;;;;;12.77;10.00;;;;;;;21.23;100.00;101355.38;5087236;28;20052;-69
2023/09/16 09:14:00;;;;;;;12.98;9.93;;;;;;;21.37;100.00;101356.22;5078393;28;20051;-69
2023/09/16 09:16:29;;;;;;;12.18;10.45;;;;;;;21.52;100.00;101361.34;5098943;28;20108;-68
2023/09/16 09:18:56;;;;;;;17.40;9.80;;;;;;;21.70;100.00;101369.56;5079004;28;20062;-68
2023/09/16 09:21:24;;;;;;;13.63;9.83;;;;;;;21.79;100.00;101369.34;5093903;28;20062;-68
2023/09/16 09:23:50;;;;;;;16.13;9.98;;;;;;;21.96;100.00;101373.22;5100936;28;20074;-68
2023/09/16 09:26:17;;;;;;;10.60;8.73;;;;;;;22.10;100.00;101366.81;5095123;28;20074;-68
2023/09/16 09:28:47;;;;;;;12.82;9.25;;;;;;;22.25;100.00;101369.28;5087423;28;20189;-69
2023/09/16 09:31:14;;;;;;;12.98;9.93;;;;;;;22.39;100.00;101374.59;5070829;28;20263;-68
2023/09/16 09:33:41;;;;;;;12.18;10.02;;;;;;;22.53;100.00;101368.16;5089070;28;20046;-68
2023/09/16 09:36:10;;;;;;;13.10;9.75;;;;;;;22.70;100.00;101374.66;5084422;28;20056;-68
2023/09/16 09:38:41;;;;;;;14.68;11.02;;;;;;;22.86;97.98;101364.50;5091377;28;20047;-68
2023/09/16 09:41:08;;;;;;;13.55;9.85;;;;;;;22.98;98.54;101370.78;5098462;28;20050;-67
2023/09/16 09:43:35;;;;;;;14.33;10.80;;;;;;;23.08;95.12;101362.31;5080687;28;20044;-68
2023/09/16 09:46:02;;;;;;;13.48;9.88;;;;;;;23.29;94.90;101363.81;5084608;28;20056;-68
2023/09/16 09:48:31;;;;;;;13.68;9.07;;;;;;;23.54;92.95;101365.66;5090870;28;20047;-67
2023/09/16 09:50:57;;;;;;;11.18;8.98;;;;;;;23.73;92.03;101370.03;5093781;28;20420;-67
2023/09/16 09:53:24;;;;;;;11.48;9.55;;;;;;;23.87;88.99;101371.59;5083793;28;20093;-67
2023/09/16 09:55:52;;;;;;;13.52;10.00;;;;;;;23.98;90.57;101364.66;5096465;28;20051;-67
2023/09/16 09:58:19;;;;;;;;;;;;;;;24.15;88.12;101364.06;5088308;27;20131;-67
2023/09/16 10:00:47;;;;;;;10.38;9.27;;;;;;;24.27;88.32;101362.28;5084272;28;19969;-67
2023/09/16 10:03:16;;;;;;;12.05;9.55;;;;;;;24.46;86.40;101365.75;5084693;28;20075;-67
2023/09/16 10:05:43;;;;;;;11.95;8.00;;;;;;;24.60;85.16;101369.94;5082155;28;20071;-67
2023/09/16 10:08:10;;;;;;;11.98;8.98;;;;;;;24.64;79.85;101365.75;5093973;28;20694;-67
2023/09/16 10:10:37;;;;;;;10.23;8.07;;;;;;;24.78;80.64;101369.06;5083336;28;20121;-67
2023/09/16 10:13:04;;;;;;;12.30;7.70;;;;;;;24.99;81.06;101367.75;5085412;28;20056;-67
2023/09/16 10:15:35;;;;;;;8.55;6.97;;;;;;;25.17;78.15;101374.91;5090807;28;20573;-67
2023/09/16 10:18:03;;;;;;;10.43;7.22;;;;;;;25.34;78.57;101367.00;5088762;28;20071;-67
2023/09/16 10:20:33;;;;;;;8.50;7.13;;;;;;;25.53;73.60;101373.09;5090295;28;20062;-68
2023/09/16 10:23:00;;;;;;;12.52;6.45;;;;;;;25.71;75.51;101369.50;5080232;28;20055;-68
2023/09/16 10:25:28;;;;;;;8.53;6.57;;;;;;;25.89;71.44;101367.72;5085622;28;20049;-68
2023/09/16 10:28:01;;;;;;;8.88;6.57;;;;;;;26.05;69.61;101367.06;5072751;28;20101;-68
2023/09/16 10:30:30;;;;;;;10.02;6.78;;;;;;;26.17;66.59;101369.72;5081374;28;20405;-68
2023/09/16 10:33:06;;;;;;;9.60;6.30;;;;;;;26.37;66.95;101369.31;5078011;28;20071;-67
2023/09/16 10:35:37;;;;;;;7.72;5.50;;;;;;;26.56;67.34;101362.69;5091372;28;20175;-67
2023/09/16 10:38:06;;;;;;;10.95;6.07;;;;;;;26.73;65.15;101361.94;5086929;28;20079;-67
2023/09/16 10:40:32;;;;;;;7.15;5.32;;;;;;;26.81;64.91;101367.75;5083275;28;20101;-68
2023/09/16 10:43:01;;;;;;;8.10;5.50;;;;;;;27.02;64.37;101360.84;5079056;28;20047;-67
2023/09/16 10:45:28;;;;;;;9.45;5.03;;;;;;;27.18;63.03;101359.22;5086363;28;20055;-67
2023/09/16 10:47:55;;;;;;;6.85;4.80;;;;;;;27.30;59.56;101355.66;5087135;28;20048;-68
2023/09/16 10:50:28;;;;;;;7.53;4.00;;;;;;;27.46;59.18;101362.09;5079901;28;20280;-67
2023/09/16 10:53:17;;;;;;;9.85;4.40;;;;;;;27.57;57.84;101359.31;5094868;28;20056;-67
2023/09/16 10:55:50;;;;;;;14.05;6.50;;;;;;;27.68;57.83;101352.19;5076382;28;20040;-68
2023/09/16 10:58:48;;;;;;;12.38;4.60;;;;;;;27.85;56.89;101352.16;5096099;28;20052;-67
2023/09/16 11:01:39;;;;;;;7.63;3.70;;;;;;;28.02;54.50;101346.75;5098229;28;20415;-67
2023/09/16 11:04:15;;;;;;;5.07;3.47;;;;;;;28.12;53.47;101348.75;5083913;28;20079;-67
2023/09/16 11:06:50;;;;;;;5.15;3.28;;;;;;;28.28;55.25;101355.94;5093490;28;20051;-67
2023/09/16 11:09:18;;;;;;;7.15;3.70;;;;;;;28.42;53.25;101344.78;5067551;28;20054;-67
2023/09/16 11:11:46;;;;;;;5.63;3.50;;;;;;;28.43;53.20;101343.72;5084362;28;20113;-67
2023/09/16 11:14:14;;;;;;;7.15;4.55;;;;;;;28.43;53.68;101341.03;5076662;28;20052;-67